Time;durP1;ratioP1;P1;durP2;ratioP2;P2;SDS_P1;SDS_P2;PMS_P1;PMS_P2;Temp;Humidity;BMP_temperature;BMP_pressure;BME280_temperature;BME280_humidity;BME280_pressure;Samples;Min_cycle;Max_cycle;Signal;HPM_P1;HPM_P2
2022/01/27 00:01:04;;;;;;;29.53;13.30;;;;;;;;;;4932011;29;20497;-64
2022/01/27 00:03:34;;;;;;;29.43;12.90;;;;;;;;;;4933553;29;20063;-64
2022/01/27 00:06:07;;;;;;;29.67;13.17;;;;;;;;;;4932712;29;20047;-64
2022/01/27 00:11:10;;;;;;;31.03;12.20;;;;;;;;;;4932983;28;20095;-65
2022/01/27 00:13:44;;;;;;;25.53;13.50;;;;;;;;;;4930149;29;20043;-63
2022/01/27 00:16:15;;;;;;;25.17;11.43;;;;;;;;;;4932662;29;20035;-64
2022/01/27 00:18:41;;;;;;;31.53;13.73;;;;;;;;;;4943902;29;20042;-64
2022/01/27 00:21:06;;;;;;;28.60;12.90;;;;;;;;;;4947698;28;20062;-64
2022/01/27 00:23:32;;;;;;;30.90;15.33;;;;;;;;;;4953746;29;20035;-63
2022/01/27 00:25:57;;;;;;;29.33;12.30;;;;;;;;;;4952412;28;20568;-63
2022/01/27 00:28:22;;;;;;;28.07;13.63;;;;;;;;;;4947608;29;20035;-64
2022/01/27 00:30:47;;;;;;;28.80;13.83;;;;;;;;;;4953013;29;20457;-64
2022/01/27 00:33:13;;;;;;;27.27;11.30;;;;;;;;;;4954647;28;20112;-64
2022/01/27 00:35:38;;;;;;;32.90;14.73;;;;;;;;;;4953629;28;20025;-64
2022/01/27 00:38:03;;;;;;;28.77;12.53;;;;;;;;;;4954376;28;20110;-64
2022/01/27 00:40:29;;;;;;;31.07;12.93;;;;;;;;;;4953220;29;20085;-64
2022/01/27 00:42:54;;;;;;;28.03;13.70;;;;;;;;;;4954106;29;20023;-64
2022/01/27 00:45:20;;;;;;;33.20;14.63;;;;;;;;;;4954166;28;20024;-65
2022/01/27 00:47:45;;;;;;;30.77;13.80;;;;;;;;;;4953634;28;20023;-63
2022/01/27 00:50:11;;;;;;;36.80;18.17;;;;;;;;;;4949694;28;20031;-64
2022/01/27 00:52:44;;;;;;;32.00;15.83;;;;;;;;;;4953391;28;20027;-64
2022/01/27 00:55:10;;;;;;;35.90;16.10;;;;;;;;;;4953277;28;20027;-64
2022/01/27 01:00:05;;;;;;;28.97;13.20;;;;;;;;;;4953140;28;20099;-64
2022/01/27 01:05:17;;;;;;;31.57;15.67;;;;;;;;;;4954145;28;20034;-62
2022/01/27 01:07:45;;;;;;;33.30;15.80;;;;;;;;;;4952818;28;20042;-62
2022/01/27 01:15:35;;;;;;;35.27;16.13;;;;;;;;;;4954183;29;20122;-64
2022/01/27 01:36:53;;;;;;;47.20;19.57;;;;;;;;;;4952755;28;20070;-64
2022/01/27 01:39:19;;;;;;;44.58;18.92;;;;;;;;;;4940771;29;20516;-64
2022/01/27 01:41:44;;;;;;;43.30;20.03;;;;;;;;;;4952630;28;20063;-64
2022/01/27 01:44:10;;;;;;;44.73;18.23;;;;;;;;;;4952215;28;20035;-64
2022/01/27 01:46:35;;;;;;;39.20;17.10;;;;;;;;;;4953531;28;20033;-64
2022/01/27 01:49:00;;;;;;;46.07;20.13;;;;;;;;;;4953535;28;20054;-64
2022/01/27 01:51:27;;;;;;;49.80;20.70;;;;;;;;;;4948892;28;20045;-64
2022/01/27 01:53:53;;;;;;;41.20;18.70;;;;;;;;;;4952847;28;20027;-64
2022/01/27 01:56:18;;;;;;;39.07;15.00;;;;;;;;;;4951888;28;20053;-64
2022/01/27 01:58:43;;;;;;;43.83;19.23;;;;;;;;;;4952299;28;20024;-64
2022/01/27 02:01:09;;;;;;;44.40;19.80;;;;;;;;;;4950008;29;20207;-64
2022/01/27 02:03:35;;;;;;;32.43;14.13;;;;;;;;;;4953923;28;20126;-64
2022/01/27 02:06:00;;;;;;;41.13;16.50;;;;;;;;;;4951268;29;20134;-63
2022/01/27 02:19:13;;;;;;;55.40;22.70;;;;;;;;;;4912015;29;20051;-64
2022/01/27 02:21:44;;;;;;;52.83;20.63;;;;;;;;;;4913006;29;20040;-62
2022/01/27 02:24:09;;;;;;;40.53;17.77;;;;;;;;;;4917020;29;20052;-63
2022/01/27 02:26:34;;;;;;;33.10;14.23;;;;;;;;;;4914703;29;20042;-63
2022/01/27 02:28:59;;;;;;;46.13;19.40;;;;;;;;;;4916151;29;20394;-63
2022/01/27 02:31:24;;;;;;;43.60;18.53;;;;;;;;;;4923297;29;20087;-63
2022/01/27 02:33:56;;;;;;;44.63;20.70;;;;;;;;;;4918850;29;20032;-64
2022/01/27 02:36:22;;;;;;;51.37;20.00;;;;;;;;;;4914500;29;20035;-63
2022/01/27 02:38:47;;;;;;;45.43;19.20;;;;;;;;;;4916202;29;20040;-64
2022/01/27 02:41:12;;;;;;;40.97;16.67;;;;;;;;;;4915589;29;20039;-64
2022/01/27 02:43:37;;;;;;;42.70;17.13;;;;;;;;;;4926969;29;20155;-63
2022/01/27 02:46:09;;;;;;;36.90;13.23;;;;;;;;;;4932134;29;20035;-64
2022/01/27 02:48:34;;;;;;;47.57;18.53;;;;;;;;;;4897042;29;20028;-64
2022/01/27 02:50:59;;;;;;;39.97;16.77;;;;;;;;;;4929930;28;20468;-64
2022/01/27 02:53:25;;;;;;;39.40;17.67;;;;;;;;;;4955106;28;20026;-64
2022/01/27 02:55:50;;;;;;;43.20;17.63;;;;;;;;;;4954550;28;20035;-64
2022/01/27 02:58:16;;;;;;;46.57;17.17;;;;;;;;;;4955963;28;20096;-63
2022/01/27 03:00:41;;;;;;;36.23;16.03;;;;;;;;;;4953450;28;20031;-64
2022/01/27 03:03:06;;;;;;;37.37;15.50;;;;;;;;;;4954535;28;20023;-64
2022/01/27 03:05:31;;;;;;;40.80;16.83;;;;;;;;;;4956052;28;20030;-64
2022/01/27 03:07:56;;;;;;;38.57;18.43;;;;;;;;;;4955584;28;20054;-64
2022/01/27 03:10:26;;;;;;;38.97;14.73;;;;;;;;;;4955489;28;20106;-64
2022/01/27 03:12:57;;;;;;;37.57;15.33;;;;;;;;;;4955112;28;20503;-64
2022/01/27 03:15:22;;;;;;;22.33;10.77;;;;;;;;;;4955652;28;20031;-64
2022/01/27 03:17:47;;;;;;;32.23;14.53;;;;;;;;;;4955291;28;20034;-64
2022/01/27 03:20:12;;;;;;;36.17;14.50;;;;;;;;;;4951580;28;20089;-63
2022/01/27 03:22:38;;;;;;;30.87;13.07;;;;;;;;;;4953785;29;20170;-64
2022/01/27 03:25:03;;;;;;;26.30;12.00;;;;;;;;;;4954870;28;20420;-64
2022/01/27 03:27:29;;;;;;;33.80;15.13;;;;;;;;;;4954863;28;20488;-64
2022/01/27 03:29:54;;;;;;;29.60;12.83;;;;;;;;;;4952979;28;20389;-64
2022/01/27 03:32:19;;;;;;;29.87;12.13;;;;;;;;;;4954880;28;20485;-65
2022/01/27 03:34:45;;;;;;;28.87;13.53;;;;;;;;;;4953999;28;20472;-64
2022/01/27 03:37:10;;;;;;;27.63;12.73;;;;;;;;;;4955372;28;20279;-64
2022/01/27 03:39:40;;;;;;;25.70;10.27;;;;;;;;;;4955369;28;20042;-64
2022/01/27 03:42:06;;;;;;;20.77;9.13;;;;;;;;;;4953104;28;20070;-64
2022/01/27 03:44:31;;;;;;;30.27;13.60;;;;;;;;;;4955070;28;20272;-64
2022/01/27 03:46:56;;;;;;;25.73;12.40;;;;;;;;;;4955588;28;20444;-64
2022/01/27 03:49:22;;;;;;;25.57;11.40;;;;;;;;;;4953874;28;20024;-63
2022/01/27 03:51:47;;;;;;;26.10;11.77;;;;;;;;;;4950296;28;20054;-64
2022/01/27 03:54:12;;;;;;;25.57;11.93;;;;;;;;;;4954701;28;20023;-64
2022/01/27 03:56:37;;;;;;;29.17;13.30;;;;;;;;;;4953716;28;20086;-64
2022/01/27 03:59:03;;;;;;;23.17;11.83;;;;;;;;;;4954622;28;20039;-63
2022/01/27 04:01:30;;;;;;;24.47;11.13;;;;;;;;;;4953998;29;20412;-63
2022/01/27 04:03:57;;;;;;;25.23;11.97;;;;;;;;;;4953372;28;20035;-65
2022/01/27 04:06:32;;;;;;;24.53;11.47;;;;;;;;;;4954417;28;20245;-63
2022/01/27 04:08:57;;;;;;;23.23;12.40;;;;;;;;;;4954864;28;20034;-64
2022/01/27 04:11:22;;;;;;;21.50;11.03;;;;;;;;;;4952855;29;20070;-64
2022/01/27 04:13:47;;;;;;;23.03;11.00;;;;;;;;;;4953568;28;20534;-64
2022/01/27 04:16:12;;;;;;;18.97;9.90;;;;;;;;;;4953907;28;20117;-64
2022/01/27 04:18:38;;;;;;;20.63;10.60;;;;;;;;;;4954009;28;20472;-65
2022/01/27 04:21:03;;;;;;;23.33;11.57;;;;;;;;;;4949734;28;20027;-64
2022/01/27 04:23:28;;;;;;;18.40;11.00;;;;;;;;;;4952765;29;20114;-64
2022/01/27 04:25:53;;;;;;;18.03;9.80;;;;;;;;;;4952331;28;20408;-63
2022/01/27 04:28:25;;;;;;;19.00;10.27;;;;;;;;;;4953851;28;20105;-62
2022/01/27 04:30:52;;;;;;;18.83;9.90;;;;;;;;;;4954404;28;20528;-61
2022/01/27 04:33:18;;;;;;;16.43;8.60;;;;;;;;;;4952647;29;20086;-63
2022/01/27 04:35:47;;;;;;;16.53;7.97;;;;;;;;;;4952164;29;20031;-63
2022/01/27 04:46:05;;;;;;;17.53;10.03;;;;;;;;;;4936975;29;20028;-63
2022/01/27 04:48:44;;;;;;;16.73;9.73;;;;;;;;;;4944605;29;20448;-62
2022/01/27 04:51:13;;;;;;;15.43;9.20;;;;;;;;;;4949520;28;20114;-63
2022/01/27 04:53:47;;;;;;;13.20;8.33;;;;;;;;;;4950382;29;20046;-65
2022/01/27 04:56:14;;;;;;;15.88;9.80;;;;;;;;;;4952467;28;20031;-64
2022/01/27 04:58:42;;;;;;;14.40;8.47;;;;;;;;;;4952894;28;20122;-64
2022/01/27 05:01:07;;;;;;;13.67;7.33;;;;;;;;;;4944770;28;20387;-64
2022/01/27 05:06:28;;;;;;;18.37;9.57;;;;;;;;;;4947725;29;20662;-63
2022/01/27 05:08:54;;;;;;;11.00;6.70;;;;;;;;;;4953293;28;20027;-63
2022/01/27 05:11:26;;;;;;;15.83;8.73;;;;;;;;;;4953235;28;20019;-62
2022/01/27 05:16:19;;;;;;;13.00;7.90;;;;;;;;;;4952965;28;20061;-62
2022/01/27 05:18:45;;;;;;;15.83;9.23;;;;;;;;;;4968612;28;20058;-64
2022/01/27 05:21:10;;;;;;;14.30;8.47;;;;;;;;;;4949262;28;20027;-63
2022/01/27 05:23:35;;;;;;;12.53;6.23;;;;;;;;;;4953141;28;20035;-63
2022/01/27 05:26:00;;;;;;;15.00;7.33;;;;;;;;;;4950253;28;20138;-62
2022/01/27 05:28:26;;;;;;;10.10;5.97;;;;;;;;;;4952578;28;20027;-63
2022/01/27 05:30:51;;;;;;;12.57;7.47;;;;;;;;;;4966739;28;20032;-62
2022/01/27 05:33:16;;;;;;;11.27;6.70;;;;;;;;;;4953669;28;20042;-64
2022/01/27 05:35:45;;;;;;;14.37;7.87;;;;;;;;;;4951424;28;20032;-64
2022/01/27 05:38:11;;;;;;;11.83;7.33;;;;;;;;;;4949282;29;20031;-61
2022/01/27 05:40:36;;;;;;;12.47;7.70;;;;;;;;;;4948607;29;20050;-64
2022/01/27 05:43:01;;;;;;;11.80;7.40;;;;;;;;;;4953108;28;20374;-63
2022/01/27 05:45:26;;;;;;;13.57;8.87;;;;;;;;;;4952671;28;20472;-64
2022/01/27 05:47:52;;;;;;;16.27;9.30;;;;;;;;;;4951797;28;20495;-63
2022/01/27 05:50:17;;;;;;;13.47;8.43;;;;;;;;;;4948126;29;20032;-63
2022/01/27 05:52:42;;;;;;;11.47;5.87;;;;;;;;;;4951660;29;20551;-64
2022/01/27 05:55:08;;;;;;;10.83;5.97;;;;;;;;;;4951768;28;20118;-62
2022/01/27 05:57:33;;;;;;;15.73;8.37;;;;;;;;;;4956132;28;20027;-63
2022/01/27 05:59:58;;;;;;;14.17;9.33;;;;;;;;;;4956441;28;20391;-63
2022/01/27 06:02:24;;;;;;;15.10;9.43;;;;;;;;;;4956634;29;20399;-62
2022/01/27 06:04:49;;;;;;;16.40;10.00;;;;;;;;;;4956503;28;20110;-62
2022/01/27 06:07:15;;;;;;;11.57;7.67;;;;;;;;;;4956602;28;20127;-63
2022/01/27 06:09:40;;;;;;;9.30;5.40;;;;;;;;;;4952907;28;20031;-63
2022/01/27 06:12:05;;;;;;;15.60;10.00;;;;;;;;;;4956423;29;20059;-64
2022/01/27 06:14:31;;;;;;;16.53;9.53;;;;;;;;;;4954365;29;20027;-63
2022/01/27 06:16:56;;;;;;;10.70;6.77;;;;;;;;;;4956473;28;20036;-64
2022/01/27 06:19:26;;;;;;;12.83;7.20;;;;;;;;;;4955092;29;20039;-63
2022/01/27 06:21:51;;;;;;;13.70;9.43;;;;;;;;;;4950919;28;20043;-63
2022/01/27 06:24:16;;;;;;;15.53;9.90;;;;;;;;;;4955941;28;20055;-64
2022/01/27 06:26:41;;;;;;;17.03;10.73;;;;;;;;;;4955744;28;20022;-63
2022/01/27 06:29:06;;;;;;;11.37;7.47;;;;;;;;;;4956059;28;20035;-64
2022/01/27 06:31:31;;;;;;;15.40;10.13;;;;;;;;;;4956317;29;20094;-63
2022/01/27 06:33:57;;;;;;;15.90;9.07;;;;;;;;;;4956189;29;20424;-63
2022/01/27 06:36:22;;;;;;;15.47;9.93;;;;;;;;;;4956365;28;20031;-64
2022/01/27 06:38:48;;;;;;;17.50;10.27;;;;;;;;;;4953348;29;20060;-64
2022/01/27 06:41:13;;;;;;;16.47;9.57;;;;;;;;;;4953258;29;20070;-62
2022/01/27 06:43:39;;;;;;;11.80;7.20;;;;;;;;;;4956358;29;20038;-64
2022/01/27 06:46:04;;;;;;;12.70;8.50;;;;;;;;;;4955919;29;20047;-64
2022/01/27 06:48:29;;;;;;;13.30;9.57;;;;;;;;;;4955911;28;20049;-64
2022/01/27 06:50:55;;;;;;;13.20;7.50;;;;;;;;;;4951305;28;20468;-64
2022/01/27 06:53:21;;;;;;;17.27;11.03;;;;;;;;;;4956023;28;20078;-62
2022/01/27 06:55:47;;;;;;;16.43;10.20;;;;;;;;;;4954504;29;20560;-63
2022/01/27 06:58:12;;;;;;;10.80;7.67;;;;;;;;;;4946640;28;20071;-64
2022/01/27 07:00:38;;;;;;;14.33;9.87;;;;;;;;;;4955325;29;20051;-64
2022/01/27 07:03:03;;;;;;;14.23;9.83;;;;;;;;;;4956233;28;20468;-63
2022/01/27 07:05:31;;;;;;;11.07;7.67;;;;;;;;;;4955066;28;20023;-63
2022/01/27 07:07:56;;;;;;;16.60;10.27;;;;;;;;;;4956210;28;20015;-64
2022/01/27 07:10:21;;;;;;;14.27;9.07;;;;;;;;;;4956177;29;20066;-63
2022/01/27 07:12:47;;;;;;;16.37;10.53;;;;;;;;;;4955094;28;20126;-63
2022/01/27 07:15:12;;;;;;;15.13;9.53;;;;;;;;;;4955852;28;20023;-62
2022/01/27 07:17:37;;;;;;;16.53;10.20;;;;;;;;;;4953027;29;20543;-62
2022/01/27 07:20:03;;;;;;;17.10;10.43;;;;;;;;;;4950317;28;20038;-63
2022/01/27 07:22:30;;;;;;;15.53;10.47;;;;;;;;;;4953527;28;20400;-63
2022/01/27 07:24:55;;;;;;;15.63;10.70;;;;;;;;;;4954420;28;20050;-63
2022/01/27 07:27:20;;;;;;;17.17;10.67;;;;;;;;;;4953890;29;20329;-64
2022/01/27 07:29:46;;;;;;;14.73;9.50;;;;;;;;;;4954173;29;20038;-63
2022/01/27 07:32:11;;;;;;;16.40;9.90;;;;;;;;;;4953343;28;20035;-63
2022/01/27 07:34:36;;;;;;;14.80;9.67;;;;;;;;;;4951521;28;20035;-63
2022/01/27 07:37:02;;;;;;;15.67;10.20;;;;;;;;;;4954650;29;20037;-64
2022/01/27 07:39:28;;;;;;;12.40;8.30;;;;;;;;;;4955294;28;20069;-63
2022/01/27 07:41:53;;;;;;;10.53;6.67;;;;;;;;;;4954551;29;20066;-62
2022/01/27 07:44:18;;;;;;;12.90;9.03;;;;;;;;;;4947848;28;20114;-63
2022/01/27 07:46:43;;;;;;;16.13;9.93;;;;;;;;;;4956997;28;20026;-61
2022/01/27 07:49:09;;;;;;;16.30;10.63;;;;;;;;;;4974406;28;20089;-62
2022/01/27 07:51:34;;;;;;;16.87;10.63;;;;;;;;;;4957327;28;20023;-63
2022/01/27 07:53:59;;;;;;;16.33;11.00;;;;;;;;;;4954386;28;20383;-63
2022/01/27 07:56:24;;;;;;;16.07;10.20;;;;;;;;;;4953822;29;20086;-63
2022/01/27 07:58:49;;;;;;;16.57;10.57;;;;;;;;;;4954619;28;20031;-63
2022/01/27 08:01:15;;;;;;;18.57;10.57;;;;;;;;;;4953996;29;20421;-64
2022/01/27 08:03:40;;;;;;;15.77;9.80;;;;;;;;;;4954170;28;20035;-63
2022/01/27 08:06:06;;;;;;;12.83;8.13;;;;;;;;;;4953891;28;20062;-64
2022/01/27 08:08:31;;;;;;;17.50;10.17;;;;;;;;;;4947694;29;20484;-64
2022/01/27 08:10:56;;;;;;;15.20;10.47;;;;;;;;;;4946172;28;20388;-62
2022/01/27 08:13:21;;;;;;;12.07;6.03;;;;;;;;;;4955898;28;20034;-65
2022/01/27 08:15:47;;;;;;;15.33;10.60;;;;;;;;;;4954885;28;20345;-63
2022/01/27 08:18:12;;;;;;;15.40;10.13;;;;;;;;;;4953782;28;20392;-62
2022/01/27 08:20:37;;;;;;;17.13;11.07;;;;;;;;;;4948274;28;20357;-64
2022/01/27 08:23:03;;;;;;;15.07;10.00;;;;;;;;;;4953453;28;20031;-64
2022/01/27 08:25:29;;;;;;;13.50;8.30;;;;;;;;;;4952740;28;20058;-63
2022/01/27 08:27:56;;;;;;;13.20;8.97;;;;;;;;;;4953736;29;20031;-63
2022/01/27 08:30:25;;;;;;;10.20;5.67;;;;;;;;;;4953073;29;20086;-63
2022/01/27 08:32:58;;;;;;;15.53;10.63;;;;;;;;;;4953585;29;20058;-62
2022/01/27 08:35:24;;;;;;;16.03;9.00;;;;;;;;;;4953728;28;20107;-63
2022/01/27 08:37:49;;;;;;;14.30;8.60;;;;;;;;;;4959358;28;20132;-64
2022/01/27 08:40:15;;;;;;;12.20;7.73;;;;;;;;;;4952444;29;20027;-64
2022/01/27 08:42:41;;;;;;;12.97;8.73;;;;;;;;;;4953237;29;20383;-61
2022/01/27 08:45:10;;;;;;;17.73;11.20;;;;;;;;;;4952719;28;20021;-64
2022/01/27 08:47:35;;;;;;;10.97;7.47;;;;;;;;;;4953227;29;20549;-64
2022/01/27 08:50:01;;;;;;;12.27;7.23;;;;;;;;;;4951724;28;20015;-63
2022/01/27 08:52:26;;;;;;;13.53;9.00;;;;;;;;;;4971963;28;20554;-65
2022/01/27 08:54:51;;;;;;;16.40;10.10;;;;;;;;;;4954110;28;20024;-66
2022/01/27 08:57:17;;;;;;;16.03;10.87;;;;;;;;;;4952115;28;20035;-63
2022/01/27 08:59:42;;;;;;;16.80;11.20;;;;;;;;;;4952374;29;20039;-64
2022/01/27 09:02:07;;;;;;;17.97;11.60;;;;;;;;;;4953160;28;20027;-64
2022/01/27 09:04:32;;;;;;;16.57;11.00;;;;;;;;;;4952871;28;20027;-65
2022/01/27 09:06:57;;;;;;;16.87;10.27;;;;;;;;;;4951577;28;20049;-64
2022/01/27 09:09:23;;;;;;;15.20;9.70;;;;;;;;;;4972950;28;20042;-65
2022/01/27 09:11:48;;;;;;;13.20;7.87;;;;;;;;;;4957725;28;20034;-65
2022/01/27 09:14:14;;;;;;;16.47;11.13;;;;;;;;;;4953434;29;20090;-64
2022/01/27 09:16:40;;;;;;;18.27;10.90;;;;;;;;;;4953458;29;20035;-64
2022/01/27 09:19:05;;;;;;;14.07;9.27;;;;;;;;;;4951892;29;20023;-64
2022/01/27 09:21:41;;;;;;;15.37;9.33;;;;;;;;;;4950730;28;20030;-65
2022/01/27 09:24:06;;;;;;;19.10;11.73;;;;;;;;;;4953052;28;20547;-63
2022/01/27 09:26:50;;;;;;;16.57;9.97;;;;;;;;;;4952505;28;20043;-64
2022/01/27 09:29:16;;;;;;;13.30;8.47;;;;;;;;;;4952549;29;20110;-63
2022/01/27 09:31:41;;;;;;;16.63;10.53;;;;;;;;;;4953760;28;20031;-64
2022/01/27 09:34:07;;;;;;;16.93;11.70;;;;;;;;;;4953782;28;20023;-63
2022/01/27 09:36:32;;;;;;;18.25;10.63;;;;;;;;;;4952132;28;20031;-65
2022/01/27 09:38:57;;;;;;;12.98;8.45;;;;;;;;;;4951059;29;20103;-68
2022/01/27 09:41:24;;;;;;;16.75;10.70;;;;;;;;;;4952168;29;20439;-67
2022/01/27 09:43:53;;;;;;;15.43;9.82;;;;;;;;;;4953766;28;20050;-66
2022/01/27 09:46:19;;;;;;;15.30;10.55;;;;;;;;;;4952995;29;20043;-67
2022/01/27 09:48:47;;;;;;;16.02;10.73;;;;;;;;;;4951749;29;20038;-67
2022/01/27 09:51:55;;;;;;;15.13;10.23;;;;;;;;;;4943252;28;20055;-68
2022/01/27 09:54:02;;;;;;;13.50;6.38;;;;;;;;;;4947055;29;20066;-68
2022/01/27 09:56:27;;;;;;;16.27;10.13;;;;;;;;;;4952551;28;20068;-67
2022/01/27 09:58:52;;;;;;;16.30;11.17;;;;;;;;;;4949689;29;20024;-67
2022/01/27 10:01:17;;;;;;;14.00;9.80;;;;;;;;;;4946322;28;20106;-67
2022/01/27 10:04:01;;;;;;;15.98;9.90;;;;;;;;;;4953471;28;20036;-67
2022/01/27 10:06:29;;;;;;;10.97;6.60;;;;;;;;;;4953074;29;20058;-67
2022/01/27 10:09:10;;;;;;;13.17;8.97;;;;;;;;;;4953490;29;20670;-66
2022/01/27 10:11:35;;;;;;;14.53;9.23;;;;;;;;;;4953787;28;20023;-64
2022/01/27 10:14:14;;;;;;;14.83;8.57;;;;;;;;;;4954865;28;20484;-66
2022/01/27 10:16:42;;;;;;;12.63;7.83;;;;;;;;;;4952974;28;20023;-66
2022/01/27 10:19:08;;;;;;;18.87;12.03;;;;;;;;;;4953231;28;20031;-67
2022/01/27 10:21:34;;;;;;;12.17;8.07;;;;;;;;;;4950083;28;20037;-66
2022/01/27 10:24:20;;;;;;;12.23;7.33;;;;;;;;;;4965802;28;20074;-66
2022/01/27 10:26:53;;;;;;;16.73;10.77;;;;;;;;;;4952535;28;20050;-64
2022/01/27 10:29:30;;;;;;;17.90;8.73;;;;;;;;;;4953405;28;20031;-65
2022/01/27 10:32:06;;;;;;;17.57;10.53;;;;;;;;;;4952664;28;20027;-66
2022/01/27 10:34:51;;;;;;;17.33;10.83;;;;;;;;;;4952940;28;20026;-66
2022/01/27 10:37:16;;;;;;;18.23;10.63;;;;;;;;;;4952759;28;20454;-66
2022/01/27 10:39:44;;;;;;;12.67;8.43;;;;;;;;;;4952890;28;20048;-67
2022/01/27 10:42:10;;;;;;;15.50;9.70;;;;;;;;;;4953546;29;20477;-66
2022/01/27 10:44:37;;;;;;;11.87;7.33;;;;;;;;;;4970202;28;20161;-66
2022/01/27 10:47:14;;;;;;;16.93;10.23;;;;;;;;;;4955132;28;20023;-68
2022/01/27 10:49:55;;;;;;;14.40;10.00;;;;;;;;;;4968865;28;20023;-65
2022/01/27 10:52:33;;;;;;;15.30;10.23;;;;;;;;;;4962848;28;20604;-65
2022/01/27 10:55:04;;;;;;;14.00;10.00;;;;;;;;;;4955522;28;20412;-66
2022/01/27 10:57:29;;;;;;;17.97;10.90;;;;;;;;;;4955972;28;20023;-66
2022/01/27 11:00:05;;;;;;;14.87;9.00;;;;;;;;;;4955581;28;20435;-66
2022/01/27 11:02:31;;;;;;;15.47;10.27;;;;;;;;;;4947641;29;20042;-64
2022/01/27 11:04:56;;;;;;;11.67;6.80;;;;;;;;;;4955699;29;20027;-67
2022/01/27 11:07:24;;;;;;;14.60;8.90;;;;;;;;;;4942567;28;20027;-65
2022/01/27 11:09:49;;;;;;;19.83;12.57;;;;;;;;;;4973956;28;20011;-65
2022/01/27 11:12:18;;;;;;;15.53;9.20;;;;;;;;;;4955670;28;20034;-66
2022/01/27 11:14:45;;;;;;;17.13;11.10;;;;;;;;;;4954824;29;20023;-66
2022/01/27 11:17:16;;;;;;;19.17;12.20;;;;;;;;;;4956060;29;20365;-66
2022/01/27 11:27:20;;;;;;;15.10;9.27;;;;;;;;;;4974697;28;20109;-67
2022/01/27 11:29:48;;;;;;;17.13;9.90;;;;;;;;;;4966205;28;20019;-65
2022/01/27 11:32:25;;;;;;;18.60;12.23;;;;;;;;;;4955538;29;20098;-65
2022/01/27 11:34:51;;;;;;;14.67;7.77;;;;;;;;;;4955383;29;20043;-66
2022/01/27 11:37:28;;;;;;;15.20;8.33;;;;;;;;;;4953208;28;20043;-65
2022/01/27 11:39:54;;;;;;;19.20;11.17;;;;;;;;;;4955127;29;20302;-65
2022/01/27 11:42:35;;;;;;;17.83;10.27;;;;;;;;;;4952325;28;20447;-65
2022/01/27 11:45:19;;;;;;;14.47;8.00;;;;;;;;;;4954298;29;20027;-66
2022/01/27 11:47:51;;;;;;;15.90;9.57;;;;;;;;;;4955212;28;20027;-65
2022/01/27 11:50:34;;;;;;;18.23;10.97;;;;;;;;;;4950496;28;20019;-66
2022/01/27 11:53:01;;;;;;;13.00;7.80;;;;;;;;;;4951629;28;20051;-66
2022/01/27 11:55:26;;;;;;;19.13;11.93;;;;;;;;;;4954019;28;20034;-65
2022/01/27 11:57:55;;;;;;;16.70;11.90;;;;;;;;;;4953800;28;20020;-65
2022/01/27 12:00:28;;;;;;;12.00;7.90;;;;;;;;;;4953911;29;20020;-65
2022/01/27 12:02:56;;;;;;;14.33;8.97;;;;;;;;;;4954781;29;20478;-64
2022/01/27 12:05:21;;;;;;;14.23;8.47;;;;;;;;;;4954679;28;20113;-65
2022/01/27 12:08:05;;;;;;;19.37;8.30;;;;;;;;;;4955005;28;20532;-65
2022/01/27 12:10:41;;;;;;;18.30;11.27;;;;;;;;;;4955225;28;20015;-64
2022/01/27 12:19:00;;;;;;;13.83;8.17;;;;;;;;;;4953442;28;20043;-65
2022/01/27 12:21:28;;;;;;;16.83;9.13;;;;;;;;;;4948265;28;20148;-66
2022/01/27 12:26:46;;;;;;;13.13;8.13;;;;;;;;;;4949059;29;20043;-65
2022/01/27 12:29:11;;;;;;;12.17;8.37;;;;;;;;;;4953604;28;20416;-66
2022/01/27 12:31:39;;;;;;;12.20;6.83;;;;;;;;;;4950235;28;20034;-67
2022/01/27 12:34:05;;;;;;;16.23;10.17;;;;;;;;;;4953458;29;20023;-66
2022/01/27 12:36:30;;;;;;;10.20;6.00;;;;;;;;;;4951984;28;20383;-66
2022/01/27 12:38:55;;;;;;;12.77;7.40;;;;;;;;;;4953736;29;20391;-66
2022/01/27 12:41:20;;;;;;;14.43;7.90;;;;;;;;;;4953525;29;20023;-66
2022/01/27 12:43:46;;;;;;;14.53;9.13;;;;;;;;;;4950220;28;20027;-65
2022/01/27 12:46:11;;;;;;;11.87;6.67;;;;;;;;;;4956653;28;20035;-66
2022/01/27 12:48:45;;;;;;;9.87;6.20;;;;;;;;;;4960032;28;20037;-66
2022/01/27 12:51:10;;;;;;;16.23;9.07;;;;;;;;;;4951375;28;20028;-64
2022/01/27 12:53:35;;;;;;;12.93;7.07;;;;;;;;;;4951925;29;20457;-65
2022/01/27 12:56:07;;;;;;;12.13;6.90;;;;;;;;;;4952675;28;20484;-66
2022/01/27 12:58:32;;;;;;;13.20;8.10;;;;;;;;;;4953387;28;20031;-66
2022/01/27 13:00:58;;;;;;;12.73;7.63;;;;;;;;;;4954015;28;20457;-64
2022/01/27 13:03:24;;;;;;;13.53;7.77;;;;;;;;;;4953172;28;20496;-66
2022/01/27 13:05:50;;;;;;;12.17;7.83;;;;;;;;;;4954241;28;20055;-65
2022/01/27 13:08:17;;;;;;;11.17;6.53;;;;;;;;;;4953366;28;20038;-65
2022/01/27 13:10:46;;;;;;;13.97;8.30;;;;;;;;;;4954079;29;20038;-66
2022/01/27 13:13:17;;;;;;;10.23;5.97;;;;;;;;;;4951618;28;20073;-65
2022/01/27 13:15:43;;;;;;;12.77;6.23;;;;;;;;;;4953584;28;20023;-65
2022/01/27 13:18:15;;;;;;;11.60;7.63;;;;;;;;;;4953056;28;20081;-65
2022/01/27 13:20:46;;;;;;;13.53;6.67;;;;;;;;;;4949573;28;20140;-65
2022/01/27 13:25:53;;;;;;;11.17;6.57;;;;;;;;;;4953482;28;20119;-65
2022/01/27 13:28:23;;;;;;;13.37;8.00;;;;;;;;;;4952966;28;20044;-65
2022/01/27 13:30:51;;;;;;;12.07;6.33;;;;;;;;;;4952472;28;20019;-65
2022/01/27 13:33:17;;;;;;;9.80;5.50;;;;;;;;;;4954001;28;20030;-65
2022/01/27 13:35:42;;;;;;;13.57;7.37;;;;;;;;;;4952013;28;20023;-64
2022/01/27 13:38:19;;;;;;;12.53;6.70;;;;;;;;;;4953227;28;20042;-65
2022/01/27 13:43:35;;;;;;;12.47;6.97;;;;;;;;;;4953590;29;20038;-64
2022/01/27 13:46:01;;;;;;;13.10;7.80;;;;;;;;;;4953087;29;20507;-63
2022/01/27 13:48:26;;;;;;;11.77;6.67;;;;;;;;;;4952935;29;20020;-66
2022/01/27 13:50:55;;;;;;;10.07;5.63;;;;;;;;;;4948214;28;20059;-65
2022/01/27 13:53:21;;;;;;;6.97;3.93;;;;;;;;;;4951133;29;20023;-64
2022/01/27 13:56:00;;;;;;;9.23;4.43;;;;;;;;;;4952687;28;20119;-65
2022/01/27 13:58:27;;;;;;;11.63;6.97;;;;;;;;;;4952188;28;20058;-64
2022/01/27 14:01:02;;;;;;;12.37;6.27;;;;;;;;;;4953427;28;20118;-66
2022/01/27 14:03:38;;;;;;;9.73;6.47;;;;;;;;;;4953558;28;20027;-66
2022/01/27 14:06:05;;;;;;;11.47;7.20;;;;;;;;;;4952917;29;20040;-65
2022/01/27 14:08:55;;;;;;;7.73;4.20;;;;;;;;;;4951855;29;20031;-66
2022/01/27 14:11:32;;;;;;;8.67;5.93;;;;;;;;;;4951150;29;20019;-65
2022/01/27 14:13:58;;;;;;;11.60;6.20;;;;;;;;;;4952758;29;20031;-65
2022/01/27 14:16:28;;;;;;;9.93;5.33;;;;;;;;;;4954201;28;20035;-63
2022/01/27 14:18:53;;;;;;;7.47;4.10;;;;;;;;;;4956804;28;20373;-65
2022/01/27 14:21:20;;;;;;;6.40;3.40;;;;;;;;;;4952388;28;20035;-65
2022/01/27 14:26:36;;;;;;;9.23;5.50;;;;;;;;;;4955840;28;20055;-64
2022/01/27 14:29:04;;;;;;;5.97;3.63;;;;;;;;;;4956636;28;20030;-64
2022/01/27 14:31:30;;;;;;;7.57;4.87;;;;;;;;;;4956697;28;20078;-64
2022/01/27 14:33:55;;;;;;;9.30;5.70;;;;;;;;;;4939632;29;20028;-63
2022/01/27 14:36:22;;;;;;;9.90;5.33;;;;;;;;;;4938248;29;20051;-70
2022/01/27 14:38:47;;;;;;;7.10;4.70;;;;;;;;;;4952286;29;20035;-69
2022/01/27 14:41:13;;;;;;;6.37;3.30;;;;;;;;;;4954456;28;20047;-68
2022/01/27 14:43:39;;;;;;;6.53;3.83;;;;;;;;;;4956370;28;20026;-68
2022/01/27 14:46:09;;;;;;;7.93;4.37;;;;;;;;;;4956104;28;20031;-68
2022/01/27 14:48:38;;;;;;;6.77;2.90;;;;;;;;;;4956098;28;20023;-68
2022/01/27 14:51:04;;;;;;;9.73;4.43;;;;;;;;;;4952721;28;20031;-68
2022/01/27 14:53:29;;;;;;;7.43;4.60;;;;;;;;;;4944113;28;20481;-68
2022/01/27 14:55:54;;;;;;;6.47;3.27;;;;;;;;;;4955715;29;20019;-68
2022/01/27 14:58:19;;;;;;;7.80;4.87;;;;;;;;;;4955623;28;20042;-69
2022/01/27 15:00:44;;;;;;;6.43;4.50;;;;;;;;;;4957087;28;20098;-69
2022/01/27 15:03:10;;;;;;;7.27;4.17;;;;;;;;;;4955999;29;20388;-69
2022/01/27 15:05:35;;;;;;;4.70;3.00;;;;;;;;;;4955946;29;20025;-69
2022/01/27 15:08:00;;;;;;;6.80;4.47;;;;;;;;;;4955802;29;20031;-70
2022/01/27 15:10:26;;;;;;;6.77;3.93;;;;;;;;;;4955812;29;20015;-67
2022/01/27 15:12:53;;;;;;;5.60;3.83;;;;;;;;;;4955243;29;20034;-69
2022/01/27 15:21:02;;;;;;;5.50;3.63;;;;;;;;;;4909765;29;20547;-67
2022/01/27 15:23:28;;;;;;;6.00;3.07;;;;;;;;;;4914371;29;20032;-69
2022/01/27 15:25:55;;;;;;;5.67;3.87;;;;;;;;;;4913704;29;20143;-67
2022/01/27 15:28:20;;;;;;;4.13;3.07;;;;;;;;;;4914698;29;20397;-69
2022/01/27 15:30:46;;;;;;;5.83;3.80;;;;;;;;;;4899087;29;20039;-69
2022/01/27 15:33:11;;;;;;;3.03;2.03;;;;;;;;;;4899366;29;20663;-68
2022/01/27 15:35:37;;;;;;;5.97;4.00;;;;;;;;;;4914837;29;20099;-68
2022/01/27 15:38:03;;;;;;;4.90;3.53;;;;;;;;;;4914244;29;20460;-67
2022/01/27 15:40:32;;;;;;;6.23;4.30;;;;;;;;;;4914840;29;20470;-69
2022/01/27 15:42:59;;;;;;;8.03;4.50;;;;;;;;;;4914484;29;20024;-69
2022/01/27 15:45:26;;;;;;;5.67;4.47;;;;;;;;;;4914532;29;20043;-68
2022/01/27 15:47:51;;;;;;;4.20;2.70;;;;;;;;;;4914017;29;20562;-67
2022/01/27 15:50:18;;;;;;;4.87;3.80;;;;;;;;;;4893919;29;20091;-67
2022/01/27 15:52:43;;;;;;;5.73;3.67;;;;;;;;;;4938962;28;20101;-69